NOZ68L ENGM-ENEV
Flight info
| Callsign | NOZ68L |
|---|---|
| Flight time | N/A |
| Altitude | 37000 |
| Route | ENGM/19R RIBBE DCT GIGNI Z125 SOMUB DCT GUBAV DCT PENNO |
| Aircraft | B738/M-SDE2E3FGHIRWXY/LB1 |
Departure
| Time | N/A |
|---|---|
| Airport | Oslo-Gardermoen International Airport (ENGM) |
Arrival
| Time | 2026-05-03 20:27 |
|---|---|
| Airport | Harstad/Narvik Airport (ENEV) |
| Time | Latitude | Longitude | Altitude | Speed | Heading |
|---|---|---|---|---|---|
| 2026-05-03 20:15 | 68.31090 | 16.29159 | 10923 ft | 342 kts | 7° |
| 2026-05-03 20:15 | 68.33428 | 16.30352 | 10536 ft | 340 kts | 7° |
| 2026-05-03 20:15 | 68.35727 | 16.31530 | 10151 ft | 339 kts | 7° |
| 2026-05-03 20:15 | 68.38042 | 16.32719 | 9814 ft | 337 kts | 7° |
| 2026-05-03 20:16 | 68.40335 | 16.33867 | 9545 ft | 331 kts | 5° |
| 2026-05-03 20:16 | 68.42607 | 16.34271 | 9257 ft | 323 kts | 356° |
| 2026-05-03 20:16 | 68.44840 | 16.34173 | 8985 ft | 318 kts | 354° |
| 2026-05-03 20:16 | 68.47015 | 16.33966 | 8697 ft | 314 kts | 354° |
| 2026-05-03 20:17 | 68.49191 | 16.33777 | 8433 ft | 310 kts | 354° |
| 2026-05-03 20:17 | 68.51333 | 16.33632 | 8148 ft | 306 kts | 354° |
| 2026-05-03 20:17 | 68.53442 | 16.33523 | 7856 ft | 302 kts | 355° |
| 2026-05-03 20:17 | 68.55531 | 16.33437 | 7622 ft | 298 kts | 355° |
| 2026-05-03 20:18 | 68.57602 | 16.33370 | 7376 ft | 296 kts | 356° |
| 2026-05-03 20:18 | 68.59665 | 16.33305 | 7109 ft | 296 kts | 355° |
| 2026-05-03 20:18 | 68.61722 | 16.33242 | 6824 ft | 294 kts | 356° |
| 2026-05-03 20:18 | 68.63745 | 16.33180 | 6642 ft | 288 kts | 356° |
| 2026-05-03 20:19 | 68.65744 | 16.33120 | 6419 ft | 285 kts | 356° |
| 2026-05-03 20:19 | 68.67713 | 16.33062 | 6212 ft | 281 kts | 356° |
| 2026-05-03 20:19 | 68.69641 | 16.33007 | 6015 ft | 279 kts | 356° |
| 2026-05-03 20:19 | 68.71558 | 16.33670 | 5774 ft | 280 kts | 20° |
| 2026-05-03 20:20 | 68.73154 | 16.36622 | 5535 ft | 276 kts | 52° |
| 2026-05-03 20:20 | 68.74046 | 16.41119 | 5320 ft | 263 kts | 79° |
| 2026-05-03 20:20 | 68.74283 | 16.46022 | 5149 ft | 254 kts | 92° |
| 2026-05-03 20:20 | 68.74349 | 16.50865 | 4924 ft | 252 kts | 94° |
| 2026-05-03 20:21 | 68.74408 | 16.55618 | 4692 ft | 249 kts | 94° |
| 2026-05-03 20:21 | 68.74368 | 16.60311 | 4525 ft | 237 kts | 111° |
| 2026-05-03 20:21 | 68.73549 | 16.63775 | 4518 ft | 206 kts | 153° |
| 2026-05-03 20:21 | 68.72249 | 16.64750 | 4515 ft | 191 kts | 182° |
| 2026-05-03 20:22 | 68.70926 | 16.64937 | 4494 ft | 190 kts | 180° |
| 2026-05-03 20:22 | 68.69604 | 16.65142 | 4498 ft | 192 kts | 180° |
| 2026-05-03 20:22 | 68.68264 | 16.65326 | 4496 ft | 192 kts | 180° |
| 2026-05-03 20:22 | 68.66918 | 16.65500 | 4402 ft | 195 kts | 180° |
| 2026-05-03 20:23 | 68.65582 | 16.65671 | 4100 ft | 194 kts | 180° |
| 2026-05-03 20:23 | 68.64240 | 16.65844 | 3766 ft | 191 kts | 179° |
| 2026-05-03 20:23 | 68.62928 | 16.66012 | 3452 ft | 187 kts | 179° |
| 2026-05-03 20:23 | 68.61637 | 16.66178 | 3108 ft | 184 kts | 179° |
| 2026-05-03 20:24 | 68.60363 | 16.66341 | 2770 ft | 180 kts | 178° |
| 2026-05-03 20:24 | 68.59137 | 16.66500 | 2460 ft | 172 kts | 178° |
| 2026-05-03 20:24 | 68.57990 | 16.66647 | 2163 ft | 162 kts | 178° |
| 2026-05-03 20:24 | 68.56906 | 16.66787 | 1868 ft | 150 kts | 178° |
| 2026-05-03 20:25 | 68.55898 | 16.66923 | 1594 ft | 143 kts | 176° |
| 2026-05-03 20:25 | 68.54922 | 16.67053 | 1313 ft | 138 kts | 175° |
| 2026-05-03 20:25 | 68.53943 | 16.67251 | 979 ft | 143 kts | 174° |
| 2026-05-03 20:25 | 68.52956 | 16.67472 | 739 ft | 144 kts | 175° |
| 2026-05-03 20:26 | 68.51954 | 16.67587 | 523 ft | 143 kts | 179° |
| 2026-05-03 20:26 | 68.50968 | 16.67642 | 298 ft | 140 kts | 176° |
| 2026-05-03 20:26 | 68.50002 | 16.67741 | 97 ft | 137 kts | 179° |
| 2026-05-03 20:26 | 68.49194 | 16.67825 | 93 ft | 86 kts | 178° |
| 2026-05-03 20:27 | 68.48889 | 16.67892 | 94 ft | 12 kts | 134° |
| 2026-05-03 20:27 | 68.48887 | 16.68066 | 89 ft | 6 kts | 87° |
| 2026-05-03 20:27 | 68.48889 | 16.68216 | 90 ft | 9 kts | 88° |
| 2026-05-03 20:27 | 68.48891 | 16.68349 | 89 ft | 4 kts | 87° |
| 2026-05-03 20:28 | 68.48892 | 16.68412 | 90 ft | 3 kts | 88° |
| 2026-05-03 20:28 | 68.48893 | 16.68472 | 92 ft | 3 kts | 89° |
| 2026-05-03 20:28 | 68.48893 | 16.68517 | 93 ft | 2 kts | 89° |
| 2026-05-03 20:28 | 68.48894 | 16.68567 | 93 ft | 3 kts | 89° |
| 2026-05-03 20:29 | 68.48919 | 16.68633 | 92 ft | 9 kts | 12° |
| 2026-05-03 20:29 | 68.48949 | 16.68638 | 91 ft | 2 kts | 358° |
| 2026-05-03 20:29 | 68.48961 | 16.68637 | 94 ft | 2 kts | 358° |
| 2026-05-03 20:29 | 68.48970 | 16.68636 | 94 ft | 1 kts | 358° |
| 2026-05-03 20:30 | 68.48973 | 16.68636 | 94 ft | 0 kts | 358° |